sensor_id;sensor_type;location;lat;lon;timestamp;temperature;humidity
20594;DHT22;10455;48.732;10.266;2023-11-25T00:02:38;1.30;99.90
20594;DHT22;10455;48.732;10.266;2023-11-25T00:07:40;1.30;99.90
20594;DHT22;10455;48.732;10.266;2023-11-25T00:12:42;1.40;99.90
20594;DHT22;10455;48.732;10.266;2023-11-25T00:17:45;1.30;99.90
20594;DHT22;10455;48.732;10.266;2023-11-25T00:22:47;1.20;99.90
20594;DHT22;10455;48.732;10.266;2023-11-25T00:27:49;1.10;99.90
20594;DHT22;10455;48.732;10.266;2023-11-25T00:32:53;0.90;99.90
20594;DHT22;10455;48.732;10.266;2023-11-25T00:37:55;0.90;99.90
20594;DHT22;10455;48.732;10.266;2023-11-25T00:42:56;1.00;99.90
20594;DHT22;10455;48.732;10.266;2023-11-25T00:48:00;1.00;99.90
20594;DHT22;10455;48.732;10.266;2023-11-25T00:53:02;0.80;99.90
20594;DHT22;10455;48.732;10.266;2023-11-25T00:58:04;0.70;99.90
20594;DHT22;10455;48.732;10.266;2023-11-25T01:03:08;0.70;99.90
20594;DHT22;10455;48.732;10.266;2023-11-25T01:08:10;0.80;99.90
20594;DHT22;10455;48.732;10.266;2023-11-25T01:13:12;0.80;99.90
20594;DHT22;10455;48.732;10.266;2023-11-25T01:18:15;0.80;99.90
20594;DHT22;10455;48.732;10.266;2023-11-25T01:23:17;0.90;99.90
20594;DHT22;10455;48.732;10.266;2023-11-25T01:28:19;0.70;99.90
20594;DHT22;10455;48.732;10.266;2023-11-25T01:33:23;0.60;99.90
20594;DHT22;10455;48.732;10.266;2023-11-25T01:38:26;0.00;99.90
20594;DHT22;10455;48.732;10.266;2023-11-25T01:43:27;-0.10;99.90
20594;DHT22;10455;48.732;10.266;2023-11-25T01:48:31;-0.10;99.90
20594;DHT22;10455;48.732;10.266;2023-11-25T01:53:34;-0.10;99.90
20594;DHT22;10455;48.732;10.266;2023-11-25T01:58:39;-0.30;99.90
20594;DHT22;10455;48.732;10.266;2023-11-25T02:03:42;-0.10;99.90
20594;DHT22;10455;48.732;10.266;2023-11-25T02:08:44;0.00;99.90
20594;DHT22;10455;48.732;10.266;2023-11-25T02:13:46;0.30;99.90
20594;DHT22;10455;48.732;10.266;2023-11-25T02:18:49;0.40;99.90
20594;DHT22;10455;48.732;10.266;2023-11-25T02:23:53;0.60;99.90
20594;DHT22;10455;48.732;10.266;2023-11-25T02:28:55;0.50;99.90
20594;DHT22;10455;48.732;10.266;2023-11-25T02:33:57;0.50;99.90
20594;DHT22;10455;48.732;10.266;2023-11-25T02:39:01;0.30;99.90
20594;DHT22;10455;48.732;10.266;2023-11-25T02:44:03;0.10;99.90
20594;DHT22;10455;48.732;10.266;2023-11-25T02:49:05;0.10;99.90
20594;DHT22;10455;48.732;10.266;2023-11-25T02:54:08;0.00;99.90
20594;DHT22;10455;48.732;10.266;2023-11-25T02:59:10;-0.10;99.90
20594;DHT22;10455;48.732;10.266;2023-11-25T03:04:13;-0.10;99.90
20594;DHT22;10455;48.732;10.266;2023-11-25T03:09:16;0.00;99.90
20594;DHT22;10455;48.732;10.266;2023-11-25T03:14:18;0.20;99.90
20594;DHT22;10455;48.732;10.266;2023-11-25T03:19:20;0.10;99.90
20594;DHT22;10455;48.732;10.266;2023-11-25T03:24:25;0.20;99.90
20594;DHT22;10455;48.732;10.266;2023-11-25T03:29:26;0.10;99.90
20594;DHT22;10455;48.732;10.266;2023-11-25T03:34:28;0.20;99.90
20594;DHT22;10455;48.732;10.266;2023-11-25T03:39:32;0.20;99.90
20594;DHT22;10455;48.732;10.266;2023-11-25T03:44:34;0.10;99.90
20594;DHT22;10455;48.732;10.266;2023-11-25T03:49:37;-0.10;99.90
20594;DHT22;10455;48.732;10.266;2023-11-25T03:54:41;-0.30;99.90
20594;DHT22;10455;48.732;10.266;2023-11-25T03:59:43;-0.50;99.90
20594;DHT22;10455;48.732;10.266;2023-11-25T04:04:45;-0.60;99.90
20594;DHT22;10455;48.732;10.266;2023-11-25T04:09:49;-0.70;99.90
20594;DHT22;10455;48.732;10.266;2023-11-25T04:14:51;-0.90;99.90
20594;DHT22;10455;48.732;10.266;2023-11-25T04:19:52;-0.80;99.90
20594;DHT22;10455;48.732;10.266;2023-11-25T04:24:56;-0.70;99.90
20594;DHT22;10455;48.732;10.266;2023-11-25T04:29:57;-0.70;99.90
20594;DHT22;10455;48.732;10.266;2023-11-25T04:34:59;-0.70;99.90
20594;DHT22;10455;48.732;10.266;2023-11-25T04:40:03;-0.70;99.90
20594;DHT22;10455;48.732;10.266;2023-11-25T04:45:08;-0.80;99.90
20594;DHT22;10455;48.732;10.266;2023-11-25T04:50:17;-0.80;99.90
20594;DHT22;10455;48.732;10.266;2023-11-25T04:55:22;-0.90;99.90
20594;DHT22;10455;48.732;10.266;2023-11-25T05:00:27;-0.80;99.90
20594;DHT22;10455;48.732;10.266;2023-11-25T05:05:29;-1.00;99.90
20594;DHT22;10455;48.732;10.266;2023-11-25T05:10:34;-0.90;99.90
20594;DHT22;10455;48.732;10.266;2023-11-25T05:15:37;-0.80;99.90
20594;DHT22;10455;48.732;10.266;2023-11-25T05:20:38;-0.80;99.90
20594;DHT22;10455;48.732;10.266;2023-11-25T05:25:42;-0.60;99.90
20594;DHT22;10455;48.732;10.266;2023-11-25T05:30:44;-0.50;99.90
20594;DHT22;10455;48.732;10.266;2023-11-25T05:35:46;-0.50;99.90
20594;DHT22;10455;48.732;10.266;2023-11-25T05:40:49;-0.50;99.90
20594;DHT22;10455;48.732;10.266;2023-11-25T05:45:53;-0.50;99.90
20594;DHT22;10455;48.732;10.266;2023-11-25T05:50:54;-0.50;99.90
20594;DHT22;10455;48.732;10.266;2023-11-25T05:55:58;-0.40;99.90
20594;DHT22;10455;48.732;10.266;2023-11-25T06:01:00;-0.50;99.90
20594;DHT22;10455;48.732;10.266;2023-11-25T06:06:03;-0.60;99.90
20594;DHT22;10455;48.732;10.266;2023-11-25T06:11:18;-0.80;99.90
20594;DHT22;10455;48.732;10.266;2023-11-25T06:16:20;-1.00;99.90
20594;DHT22;10455;48.732;10.266;2023-11-25T06:21:22;-1.00;99.90
20594;DHT22;10455;48.732;10.266;2023-11-25T06:26:25;-1.10;99.90
20594;DHT22;10455;48.732;10.266;2023-11-25T06:31:27;-1.00;99.90
20594;DHT22;10455;48.732;10.266;2023-11-25T06:36:29;-1.00;99.90
20594;DHT22;10455;48.732;10.266;2023-11-25T06:41:33;-1.00;99.90
20594;DHT22;10455;48.732;10.266;2023-11-25T06:46:34;-0.80;99.90
20594;DHT22;10455;48.732;10.266;2023-11-25T06:51:36;-0.80;99.90
20594;DHT22;10455;48.732;10.266;2023-11-25T06:56:39;-0.90;99.90
20594;DHT22;10455;48.732;10.266;2023-11-25T07:01:41;-0.80;99.90
20594;DHT22;10455;48.732;10.266;2023-11-25T07:06:43;-0.70;99.90
20594;DHT22;10455;48.732;10.266;2023-11-25T07:11:46;-0.40;99.90
20594;DHT22;10455;48.732;10.266;2023-11-25T07:16:49;-0.30;99.90
20594;DHT22;10455;48.732;10.266;2023-11-25T07:21:52;-0.20;99.90
20594;DHT22;10455;48.732;10.266;2023-11-25T07:26:56;-0.20;99.90
20594;DHT22;10455;48.732;10.266;2023-11-25T07:32:03;-0.20;99.90
20594;DHT22;10455;48.732;10.266;2023-11-25T07:37:04;0.10;99.90
20594;DHT22;10455;48.732;10.266;2023-11-25T07:42:08;0.00;99.90
20594;DHT22;10455;48.732;10.266;2023-11-25T07:47:10;0.10;99.90
20594;DHT22;10455;48.732;10.266;2023-11-25T07:52:16;0.10;99.90
20594;DHT22;10455;48.732;10.266;2023-11-25T07:57:19;0.30;99.90
20594;DHT22;10455;48.732;10.266;2023-11-25T08:02:21;0.40;99.90
20594;DHT22;10455;48.732;10.266;2023-11-25T08:07:23;0.50;99.90
20594;DHT22;10455;48.732;10.266;2023-11-25T08:12:26;0.60;99.90
20594;DHT22;10455;48.732;10.266;2023-11-25T08:17:28;0.90;99.90
20594;DHT22;10455;48.732;10.266;2023-11-25T08:22:31;0.90;99.90
20594;DHT22;10455;48.732;10.266;2023-11-25T08:27:35;0.90;99.90
20594;DHT22;10455;48.732;10.266;2023-11-25T08:32:38;1.50;99.90
20594;DHT22;10455;48.732;10.266;2023-11-25T08:37:40;1.80;99.90
20594;DHT22;10455;48.732;10.266;2023-11-25T08:42:44;1.60;99.90
20594;DHT22;10455;48.732;10.266;2023-11-25T08:47:46;1.40;99.90
20594;DHT22;10455;48.732;10.266;2023-11-25T08:52:49;1.30;99.90
20594;DHT22;10455;48.732;10.266;2023-11-25T08:57:52;1.20;99.90
20594;DHT22;10455;48.732;10.266;2023-11-25T09:02:54;1.40;99.90
20594;DHT22;10455;48.732;10.266;2023-11-25T09:07:58;1.50;99.90
20594;DHT22;10455;48.732;10.266;2023-11-25T09:13:02;2.30;99.90
20594;DHT22;10455;48.732;10.266;2023-11-25T09:18:05;2.20;99.90
20594;DHT22;10455;48.732;10.266;2023-11-25T09:23:07;2.30;99.90
20594;DHT22;10455;48.732;10.266;2023-11-25T09:28:10;2.30;99.90
20594;DHT22;10455;48.732;10.266;2023-11-25T09:33:13;2.10;99.90
20594;DHT22;10455;48.732;10.266;2023-11-25T09:38:16;2.00;99.90
20594;DHT22;10455;48.732;10.266;2023-11-25T09:43:20;1.90;99.90
20594;DHT22;10455;48.732;10.266;2023-11-25T09:48:23;2.10;99.90
20594;DHT22;10455;48.732;10.266;2023-11-25T09:53:27;2.40;99.90
20594;DHT22;10455;48.732;10.266;2023-11-25T09:58:32;2.70;99.90
20594;DHT22;10455;48.732;10.266;2023-11-25T10:03:36;3.30;99.90
20594;DHT22;10455;48.732;10.266;2023-11-25T10:08:39;3.10;99.90
20594;DHT22;10455;48.732;10.266;2023-11-25T10:13:42;3.10;99.90
20594;DHT22;10455;48.732;10.266;2023-11-25T10:18:44;2.90;99.90
20594;DHT22;10455;48.732;10.266;2023-11-25T10:23:46;3.20;99.90
20594;DHT22;10455;48.732;10.266;2023-11-25T10:28:49;3.20;99.90
20594;DHT22;10455;48.732;10.266;2023-11-25T10:33:55;3.40;99.90
20594;DHT22;10455;48.732;10.266;2023-11-25T10:38:58;4.00;99.90
20594;DHT22;10455;48.732;10.266;2023-11-25T10:44:07;5.90;99.90
20594;DHT22;10455;48.732;10.266;2023-11-25T10:49:10;7.10;99.90
20594;DHT22;10455;48.732;10.266;2023-11-25T10:54:12;5.60;99.90
20594;DHT22;10455;48.732;10.266;2023-11-25T10:59:18;6.10;99.90
20594;DHT22;10455;48.732;10.266;2023-11-25T11:04:26;4.80;99.90
20594;DHT22;10455;48.732;10.266;2023-11-25T11:09:32;6.10;99.90
20594;DHT22;10455;48.732;10.266;2023-11-25T11:14:46;6.70;99.90
20594;DHT22;10455;48.732;10.266;2023-11-25T11:19:50;7.90;99.90
20594;DHT22;10455;48.732;10.266;2023-11-25T11:25:05;5.20;99.90
20594;DHT22;10455;48.732;10.266;2023-11-25T11:30:14;4.50;99.90
20594;DHT22;10455;48.732;10.266;2023-11-25T11:35:18;3.70;99.90
20594;DHT22;10455;48.732;10.266;2023-11-25T11:40:21;4.50;99.90
20594;DHT22;10455;48.732;10.266;2023-11-25T11:45:25;4.80;99.90
20594;DHT22;10455;48.732;10.266;2023-11-25T11:50:29;4.00;99.90
20594;DHT22;10455;48.732;10.266;2023-11-25T11:55:36;3.50;99.90
20594;DHT22;10455;48.732;10.266;2023-11-25T12:00:41;3.90;99.90
20594;DHT22;10455;48.732;10.266;2023-11-25T12:05:46;4.50;99.90
20594;DHT22;10455;48.732;10.266;2023-11-25T12:10:49;3.80;99.90
20594;DHT22;10455;48.732;10.266;2023-11-25T12:15:53;3.50;99.90
20594;DHT22;10455;48.732;10.266;2023-11-25T12:21:00;3.30;99.90
20594;DHT22;10455;48.732;10.266;2023-11-25T12:26:04;3.60;99.90
20594;DHT22;10455;48.732;10.266;2023-11-25T12:31:09;3.90;99.90
20594;DHT22;10455;48.732;10.266;2023-11-25T12:36:11;3.90;99.90
20594;DHT22;10455;48.732;10.266;2023-11-25T12:41:13;3.50;99.90
20594;DHT22;10455;48.732;10.266;2023-11-25T12:46:17;3.30;99.90
20594;DHT22;10455;48.732;10.266;2023-11-25T12:51:20;2.90;99.90
20594;DHT22;10455;48.732;10.266;2023-11-25T12:56:22;3.10;99.90
20594;DHT22;10455;48.732;10.266;2023-11-25T13:01:25;2.80;99.90
20594;DHT22;10455;48.732;10.266;2023-11-25T13:06:27;2.70;99.90
20594;DHT22;10455;48.732;10.266;2023-11-25T13:11:29;3.00;99.90
20594;DHT22;10455;48.732;10.266;2023-11-25T13:16:34;2.90;99.90
20594;DHT22;10455;48.732;10.266;2023-11-25T13:21:37;3.50;99.90
20594;DHT22;10455;48.732;10.266;2023-11-25T13:26:38;3.10;99.90
20594;DHT22;10455;48.732;10.266;2023-11-25T13:31:42;2.80;99.90
20594;DHT22;10455;48.732;10.266;2023-11-25T13:36:43;2.40;99.90
20594;DHT22;10455;48.732;10.266;2023-11-25T13:41:46;2.30;99.90
20594;DHT22;10455;48.732;10.266;2023-11-25T13:46:49;2.00;99.90
20594;DHT22;10455;48.732;10.266;2023-11-25T13:51:51;2.00;99.90
20594;DHT22;10455;48.732;10.266;2023-11-25T13:56:53;1.80;99.90
20594;DHT22;10455;48.732;10.266;2023-11-25T14:01:57;1.90;99.90
20594;DHT22;10455;48.732;10.266;2023-11-25T14:07:02;1.70;99.90
20594;DHT22;10455;48.732;10.266;2023-11-25T14:12:04;1.80;99.90
20594;DHT22;10455;48.732;10.266;2023-11-25T14:17:09;1.90;99.90
20594;DHT22;10455;48.732;10.266;2023-11-25T14:22:16;1.90;99.90
20594;DHT22;10455;48.732;10.266;2023-11-25T14:27:19;1.70;99.90
20594;DHT22;10455;48.732;10.266;2023-11-25T14:32:22;1.60;99.90
20594;DHT22;10455;48.732;10.266;2023-11-25T14:37:24;1.90;99.90
20594;DHT22;10455;48.732;10.266;2023-11-25T14:42:28;1.90;99.90
20594;DHT22;10455;48.732;10.266;2023-11-25T14:47:33;1.70;99.90
20594;DHT22;10455;48.732;10.266;2023-11-25T14:52:35;1.60;99.90
20594;DHT22;10455;48.732;10.266;2023-11-25T14:57:37;1.60;99.90
20594;DHT22;10455;48.732;10.266;2023-11-25T15:02:41;1.60;99.90
20594;DHT22;10455;48.732;10.266;2023-11-25T15:07:43;1.70;99.90
20594;DHT22;10455;48.732;10.266;2023-11-25T15:12:45;1.50;99.90
20594;DHT22;10455;48.732;10.266;2023-11-25T15:17:49;1.60;99.90
20594;DHT22;10455;48.732;10.266;2023-11-25T15:22:51;1.70;99.90
20594;DHT22;10455;48.732;10.266;2023-11-25T15:27:53;1.50;99.90
20594;DHT22;10455;48.732;10.266;2023-11-25T15:32:56;1.50;99.90
20594;DHT22;10455;48.732;10.266;2023-11-25T15:38:00;1.60;99.90
20594;DHT22;10455;48.732;10.266;2023-11-25T15:43:02;1.70;99.90
20594;DHT22;10455;48.732;10.266;2023-11-25T15:48:05;1.40;99.90
20594;DHT22;10455;48.732;10.266;2023-11-25T15:53:08;1.50;99.90
20594;DHT22;10455;48.732;10.266;2023-11-25T15:58:12;1.50;99.90
20594;DHT22;10455;48.732;10.266;2023-11-25T16:03:15;1.50;99.90
20594;DHT22;10455;48.732;10.266;2023-11-25T16:08:17;1.60;99.90
20594;DHT22;10455;48.732;10.266;2023-11-25T16:13:19;1.60;99.90
20594;DHT22;10455;48.732;10.266;2023-11-25T16:18:24;1.50;99.90
20594;DHT22;10455;48.732;10.266;2023-11-25T16:23:30;1.50;99.90
20594;DHT22;10455;48.732;10.266;2023-11-25T16:28:32;1.50;99.90
20594;DHT22;10455;48.732;10.266;2023-11-25T16:33:35;1.60;99.90
20594;DHT22;10455;48.732;10.266;2023-11-25T16:38:37;1.50;99.90
20594;DHT22;10455;48.732;10.266;2023-11-25T16:43:39;1.70;99.90
20594;DHT22;10455;48.732;10.266;2023-11-25T16:48:43;1.70;99.90
20594;DHT22;10455;48.732;10.266;2023-11-25T16:53:45;1.60;99.90
20594;DHT22;10455;48.732;10.266;2023-11-25T16:58:47;1.70;99.90
20594;DHT22;10455;48.732;10.266;2023-11-25T17:03:50;1.80;99.90
20594;DHT22;10455;48.732;10.266;2023-11-25T17:08:52;1.90;99.90
20594;DHT22;10455;48.732;10.266;2023-11-25T17:13:54;1.70;99.90
20594;DHT22;10455;48.732;10.266;2023-11-25T17:18:57;1.50;99.90
20594;DHT22;10455;48.732;10.266;2023-11-25T17:23:59;1.70;99.90
20594;DHT22;10455;48.732;10.266;2023-11-25T17:29:04;1.50;99.90
20594;DHT22;10455;48.732;10.266;2023-11-25T17:34:07;1.60;99.90
20594;DHT22;10455;48.732;10.266;2023-11-25T17:39:09;1.50;99.90
20594;DHT22;10455;48.732;10.266;2023-11-25T17:44:13;1.50;99.90
20594;DHT22;10455;48.732;10.266;2023-11-25T17:49:16;1.60;99.90
20594;DHT22;10455;48.732;10.266;2023-11-25T17:54:18;1.50;99.90
20594;DHT22;10455;48.732;10.266;2023-11-25T17:59:20;1.60;99.90
20594;DHT22;10455;48.732;10.266;2023-11-25T18:04:24;1.80;99.90
20594;DHT22;10455;48.732;10.266;2023-11-25T18:09:25;1.70;99.90
20594;DHT22;10455;48.732;10.266;2023-11-25T18:14:27;1.50;99.90
20594;DHT22;10455;48.732;10.266;2023-11-25T18:19:31;1.90;99.90
20594;DHT22;10455;48.732;10.266;2023-11-25T18:24:33;1.70;99.90
20594;DHT22;10455;48.732;10.266;2023-11-25T18:29:34;1.70;99.90
20594;DHT22;10455;48.732;10.266;2023-11-25T18:34:38;1.50;99.90
20594;DHT22;10455;48.732;10.266;2023-11-25T18:39:40;1.70;99.90
20594;DHT22;10455;48.732;10.266;2023-11-25T18:44:41;1.70;99.90
20594;DHT22;10455;48.732;10.266;2023-11-25T18:49:45;1.80;99.90
20594;DHT22;10455;48.732;10.266;2023-11-25T18:54:46;1.60;99.90
20594;DHT22;10455;48.732;10.266;2023-11-25T18:59:49;1.70;99.90
20594;DHT22;10455;48.732;10.266;2023-11-25T19:04:53;1.70;99.90
20594;DHT22;10455;48.732;10.266;2023-11-25T19:09:55;1.70;99.90
20594;DHT22;10455;48.732;10.266;2023-11-25T19:14:57;1.60;99.90
20594;DHT22;10455;48.732;10.266;2023-11-25T19:20:01;1.80;99.90
20594;DHT22;10455;48.732;10.266;2023-11-25T19:25:06;1.90;99.90
20594;DHT22;10455;48.732;10.266;2023-11-25T19:30:08;1.70;99.90
20594;DHT22;10455;48.732;10.266;2023-11-25T19:35:12;1.80;99.90
20594;DHT22;10455;48.732;10.266;2023-11-25T19:40:14;1.80;99.90
20594;DHT22;10455;48.732;10.266;2023-11-25T19:45:16;1.80;99.90
20594;DHT22;10455;48.732;10.266;2023-11-25T19:50:19;1.90;99.90
20594;DHT22;10455;48.732;10.266;2023-11-25T19:55:21;1.90;99.90
20594;DHT22;10455;48.732;10.266;2023-11-25T20:00:23;1.80;99.90
20594;DHT22;10455;48.732;10.266;2023-11-25T20:05:26;1.90;99.90
20594;DHT22;10455;48.732;10.266;2023-11-25T20:10:28;2.00;99.90
20594;DHT22;10455;48.732;10.266;2023-11-25T20:15:30;1.80;99.90
20594;DHT22;10455;48.732;10.266;2023-11-25T20:20:33;1.80;99.90
20594;DHT22;10455;48.732;10.266;2023-11-25T20:25:35;1.80;99.90
20594;DHT22;10455;48.732;10.266;2023-11-25T20:30:37;1.80;99.90
20594;DHT22;10455;48.732;10.266;2023-11-25T20:35:42;2.00;99.90
20594;DHT22;10455;48.732;10.266;2023-11-25T20:40:44;1.80;99.90
20594;DHT22;10455;48.732;10.266;2023-11-25T20:45:46;1.90;99.90
20594;DHT22;10455;48.732;10.266;2023-11-25T20:50:50;1.90;99.90
20594;DHT22;10455;48.732;10.266;2023-11-25T20:55:52;1.90;99.90
20594;DHT22;10455;48.732;10.266;2023-11-25T21:00:54;2.00;99.90
20594;DHT22;10455;48.732;10.266;2023-11-25T21:05:58;2.00;99.90
20594;DHT22;10455;48.732;10.266;2023-11-25T21:11:00;1.90;99.90
20594;DHT22;10455;48.732;10.266;2023-11-25T21:16:01;1.80;99.90
20594;DHT22;10455;48.732;10.266;2023-11-25T21:21:06;1.80;99.90
20594;DHT22;10455;48.732;10.266;2023-11-25T21:26:08;1.90;99.90
20594;DHT22;10455;48.732;10.266;2023-11-25T21:31:12;1.80;99.90
20594;DHT22;10455;48.732;10.266;2023-11-25T21:36:15;1.90;99.90
20594;DHT22;10455;48.732;10.266;2023-11-25T21:41:17;1.60;99.90
20594;DHT22;10455;48.732;10.266;2023-11-25T21:46:19;1.60;99.90
20594;DHT22;10455;48.732;10.266;2023-11-25T21:51:22;1.60;99.90
20594;DHT22;10455;48.732;10.266;2023-11-25T21:56:24;1.50;99.90
20594;DHT22;10455;48.732;10.266;2023-11-25T22:01:26;1.70;99.90
20594;DHT22;10455;48.732;10.266;2023-11-25T22:06:29;1.70;99.90
20594;DHT22;10455;48.732;10.266;2023-11-25T22:11:32;1.50;99.90
20594;DHT22;10455;48.732;10.266;2023-11-25T22:16:34;1.50;99.90
20594;DHT22;10455;48.732;10.266;2023-11-25T22:21:37;1.50;99.90
20594;DHT22;10455;48.732;10.266;2023-11-25T22:26:39;1.40;99.90
20594;DHT22;10455;48.732;10.266;2023-11-25T22:31:47;1.40;99.90
20594;DHT22;10455;48.732;10.266;2023-11-25T22:36:51;1.40;99.90
20594;DHT22;10455;48.732;10.266;2023-11-25T22:41:53;1.30;99.90
20594;DHT22;10455;48.732;10.266;2023-11-25T22:46:55;1.30;99.90
20594;DHT22;10455;48.732;10.266;2023-11-25T22:51:58;1.30;99.90
20594;DHT22;10455;48.732;10.266;2023-11-25T22:57:00;1.40;99.90
20594;DHT22;10455;48.732;10.266;2023-11-25T23:02:02;1.50;99.90
20594;DHT22;10455;48.732;10.266;2023-11-25T23:07:06;1.40;99.90
20594;DHT22;10455;48.732;10.266;2023-11-25T23:12:08;1.30;99.90
20594;DHT22;10455;48.732;10.266;2023-11-25T23:17:10;1.50;99.90
20594;DHT22;10455;48.732;10.266;2023-11-25T23:22:14;1.50;99.90
20594;DHT22;10455;48.732;10.266;2023-11-25T23:27:15;1.60;99.90
20594;DHT22;10455;48.732;10.266;2023-11-25T23:32:17;1.70;99.90
20594;DHT22;10455;48.732;10.266;2023-11-25T23:37:20;1.70;99.90
20594;DHT22;10455;48.732;10.266;2023-11-25T23:42:22;1.60;99.90
20594;DHT22;10455;48.732;10.266;2023-11-25T23:47:24;1.60;99.90
20594;DHT22;10455;48.732;10.266;2023-11-25T23:52:28;1.70;99.90
20594;DHT22;10455;48.732;10.266;2023-11-25T23:57:31;1.60;99.90
